sensor_id;sensor_type;location;lat;lon;timestamp;temperature;humidity
33673;DHT22;20011;51.510;9.942;2024-02-26T00:02:10;4.20;99.90
33673;DHT22;20011;51.510;9.942;2024-02-26T00:04:37;4.20;99.90
33673;DHT22;20011;51.510;9.942;2024-02-26T00:07:04;4.20;99.90
33673;DHT22;20011;51.510;9.942;2024-02-26T00:09:31;4.20;99.90
33673;DHT22;20011;51.510;9.942;2024-02-26T00:11:58;4.20;99.90
33673;DHT22;20011;51.510;9.942;2024-02-26T00:14:26;4.20;99.90
33673;DHT22;20011;51.510;9.942;2024-02-26T00:16:53;4.10;99.90
33673;DHT22;20011;51.510;9.942;2024-02-26T00:19:20;4.10;99.90
33673;DHT22;20011;51.510;9.942;2024-02-26T00:21:47;4.20;99.90
33673;DHT22;20011;51.510;9.942;2024-02-26T00:24:14;4.30;99.90
33673;DHT22;20011;51.510;9.942;2024-02-26T00:26:41;4.30;99.90
33673;DHT22;20011;51.510;9.942;2024-02-26T00:29:08;4.30;99.90
33673;DHT22;20011;51.510;9.942;2024-02-26T00:31:37;4.20;99.90
33673;DHT22;20011;51.510;9.942;2024-02-26T00:34:04;4.10;99.90
33673;DHT22;20011;51.510;9.942;2024-02-26T00:36:32;4.20;99.90
33673;DHT22;20011;51.510;9.942;2024-02-26T00:38:59;4.30;99.90
33673;DHT22;20011;51.510;9.942;2024-02-26T00:41:26;4.30;99.90
33673;DHT22;20011;51.510;9.942;2024-02-26T00:43:52;4.20;99.90
33673;DHT22;20011;51.510;9.942;2024-02-26T00:46:19;4.30;99.90
33673;DHT22;20011;51.510;9.942;2024-02-26T00:48:46;4.30;99.90
33673;DHT22;20011;51.510;9.942;2024-02-26T00:51:14;4.30;99.90
33673;DHT22;20011;51.510;9.942;2024-02-26T00:53:42;4.20;99.90
33673;DHT22;20011;51.510;9.942;2024-02-26T00:56:09;4.10;99.90
33673;DHT22;20011;51.510;9.942;2024-02-26T00:58:36;4.10;99.90
33673;DHT22;20011;51.510;9.942;2024-02-26T01:01:03;4.20;99.90
33673;DHT22;20011;51.510;9.942;2024-02-26T01:03:30;4.10;99.90
33673;DHT22;20011;51.510;9.942;2024-02-26T01:05:57;4.10;99.90
33673;DHT22;20011;51.510;9.942;2024-02-26T01:08:25;4.00;99.90
33673;DHT22;20011;51.510;9.942;2024-02-26T01:10:52;4.10;99.90
33673;DHT22;20011;51.510;9.942;2024-02-26T01:13:19;4.10;99.90
33673;DHT22;20011;51.510;9.942;2024-02-26T01:15:46;4.10;99.90
33673;DHT22;20011;51.510;9.942;2024-02-26T01:18:13;4.20;99.90
33673;DHT22;20011;51.510;9.942;2024-02-26T01:20:41;4.20;99.90
33673;DHT22;20011;51.510;9.942;2024-02-26T01:23:08;4.20;99.90
33673;DHT22;20011;51.510;9.942;2024-02-26T01:25:35;4.30;99.90
33673;DHT22;20011;51.510;9.942;2024-02-26T01:28:02;4.20;99.90
33673;DHT22;20011;51.510;9.942;2024-02-26T01:30:29;4.20;99.90
33673;DHT22;20011;51.510;9.942;2024-02-26T01:32:57;4.10;99.90
33673;DHT22;20011;51.510;9.942;2024-02-26T01:35:24;4.00;99.90
33673;DHT22;20011;51.510;9.942;2024-02-26T01:37:51;4.00;99.90
33673;DHT22;20011;51.510;9.942;2024-02-26T01:40:18;4.20;99.90
33673;DHT22;20011;51.510;9.942;2024-02-26T01:42:46;4.30;99.90
33673;DHT22;20011;51.510;9.942;2024-02-26T01:45:16;4.20;99.90
33673;DHT22;20011;51.510;9.942;2024-02-26T01:47:52;4.30;99.90
33673;DHT22;20011;51.510;9.942;2024-02-26T01:50:20;4.20;99.90
33673;DHT22;20011;51.510;9.942;2024-02-26T01:52:50;4.10;99.90
33673;DHT22;20011;51.510;9.942;2024-02-26T01:55:18;4.20;99.90
33673;DHT22;20011;51.510;9.942;2024-02-26T01:57:48;4.10;99.90
33673;DHT22;20011;51.510;9.942;2024-02-26T02:00:16;4.10;99.90
33673;DHT22;20011;51.510;9.942;2024-02-26T02:02:44;4.10;99.90
33673;DHT22;20011;51.510;9.942;2024-02-26T02:05:15;4.10;99.90
33673;DHT22;20011;51.510;9.942;2024-02-26T02:07:44;4.20;99.90
33673;DHT22;20011;51.510;9.942;2024-02-26T02:10:11;4.10;99.90
33673;DHT22;20011;51.510;9.942;2024-02-26T02:12:39;4.20;99.90
33673;DHT22;20011;51.510;9.942;2024-02-26T02:15:07;4.20;99.90
33673;DHT22;20011;51.510;9.942;2024-02-26T02:17:34;4.10;99.90
33673;DHT22;20011;51.510;9.942;2024-02-26T02:20:02;4.00;99.90
33673;DHT22;20011;51.510;9.942;2024-02-26T02:22:30;4.10;99.90
33673;DHT22;20011;51.510;9.942;2024-02-26T02:24:59;3.90;99.90
33673;DHT22;20011;51.510;9.942;2024-02-26T02:27:29;4.00;99.90
33673;DHT22;20011;51.510;9.942;2024-02-26T02:29:56;4.10;99.90
33673;DHT22;20011;51.510;9.942;2024-02-26T02:32:25;4.20;99.90
33673;DHT22;20011;51.510;9.942;2024-02-26T02:34:52;4.10;99.90
33673;DHT22;20011;51.510;9.942;2024-02-26T02:37:19;4.10;99.90
33673;DHT22;20011;51.510;9.942;2024-02-26T02:39:46;4.20;99.90
33673;DHT22;20011;51.510;9.942;2024-02-26T02:42:13;4.00;99.90
33673;DHT22;20011;51.510;9.942;2024-02-26T02:44:40;4.20;99.90
33673;DHT22;20011;51.510;9.942;2024-02-26T02:47:07;4.10;99.90
33673;DHT22;20011;51.510;9.942;2024-02-26T02:49:34;4.00;99.90
33673;DHT22;20011;51.510;9.942;2024-02-26T02:52:01;4.10;99.90
33673;DHT22;20011;51.510;9.942;2024-02-26T02:54:28;4.20;99.90
33673;DHT22;20011;51.510;9.942;2024-02-26T02:56:55;4.30;99.90
33673;DHT22;20011;51.510;9.942;2024-02-26T02:59:22;4.30;99.90
33673;DHT22;20011;51.510;9.942;2024-02-26T03:01:49;4.40;99.90
33673;DHT22;20011;51.510;9.942;2024-02-26T03:04:16;4.20;99.90
33673;DHT22;20011;51.510;9.942;2024-02-26T03:06:43;4.30;99.90
33673;DHT22;20011;51.510;9.942;2024-02-26T03:09:11;4.30;99.90
33673;DHT22;20011;51.510;9.942;2024-02-26T03:11:38;4.20;99.90
33673;DHT22;20011;51.510;9.942;2024-02-26T03:14:05;4.30;99.90
33673;DHT22;20011;51.510;9.942;2024-02-26T03:16:33;4.20;99.90
33673;DHT22;20011;51.510;9.942;2024-02-26T03:19:00;4.30;99.90
33673;DHT22;20011;51.510;9.942;2024-02-26T03:21:28;4.30;99.90
33673;DHT22;20011;51.510;9.942;2024-02-26T03:23:55;4.00;99.90
33673;DHT22;20011;51.510;9.942;2024-02-26T03:26:22;4.10;99.90
33673;DHT22;20011;51.510;9.942;2024-02-26T03:28:49;4.20;99.90
33673;DHT22;20011;51.510;9.942;2024-02-26T03:31:16;4.10;99.90
33673;DHT22;20011;51.510;9.942;2024-02-26T03:33:43;4.20;99.90
33673;DHT22;20011;51.510;9.942;2024-02-26T03:36:12;4.20;99.90
33673;DHT22;20011;51.510;9.942;2024-02-26T03:38:39;4.30;99.90
33673;DHT22;20011;51.510;9.942;2024-02-26T03:41:06;4.30;99.90
33673;DHT22;20011;51.510;9.942;2024-02-26T03:43:33;4.40;99.90
33673;DHT22;20011;51.510;9.942;2024-02-26T03:46:00;4.30;99.90
33673;DHT22;20011;51.510;9.942;2024-02-26T03:48:27;4.40;99.90
33673;DHT22;20011;51.510;9.942;2024-02-26T03:50:54;4.30;99.90
33673;DHT22;20011;51.510;9.942;2024-02-26T03:53:21;4.10;99.90
33673;DHT22;20011;51.510;9.942;2024-02-26T03:55:48;4.20;99.90
33673;DHT22;20011;51.510;9.942;2024-02-26T03:58:15;4.10;99.90
33673;DHT22;20011;51.510;9.942;2024-02-26T04:00:42;4.20;99.90
33673;DHT22;20011;51.510;9.942;2024-02-26T04:03:10;4.20;99.90
33673;DHT22;20011;51.510;9.942;2024-02-26T04:05:37;4.30;99.90
33673;DHT22;20011;51.510;9.942;2024-02-26T04:08:05;4.20;99.90
33673;DHT22;20011;51.510;9.942;2024-02-26T04:10:34;4.30;99.90
33673;DHT22;20011;51.510;9.942;2024-02-26T04:13:07;4.40;99.90
33673;DHT22;20011;51.510;9.942;2024-02-26T04:15:35;4.30;99.90
33673;DHT22;20011;51.510;9.942;2024-02-26T04:18:02;4.40;99.90
33673;DHT22;20011;51.510;9.942;2024-02-26T04:20:30;4.60;99.90
33673;DHT22;20011;51.510;9.942;2024-02-26T04:22:57;4.60;99.90
33673;DHT22;20011;51.510;9.942;2024-02-26T04:25:24;4.60;99.90
33673;DHT22;20011;51.510;9.942;2024-02-26T04:27:51;4.50;99.90
33673;DHT22;20011;51.510;9.942;2024-02-26T04:30:18;4.70;99.90
33673;DHT22;20011;51.510;9.942;2024-02-26T04:32:45;4.40;99.90
33673;DHT22;20011;51.510;9.942;2024-02-26T04:35:12;4.60;99.90
33673;DHT22;20011;51.510;9.942;2024-02-26T04:37:39;4.60;99.90
33673;DHT22;20011;51.510;9.942;2024-02-26T04:40:06;4.80;99.90
33673;DHT22;20011;51.510;9.942;2024-02-26T04:42:34;4.70;99.90
33673;DHT22;20011;51.510;9.942;2024-02-26T04:45:02;4.80;99.90
33673;DHT22;20011;51.510;9.942;2024-02-26T04:47:29;4.80;99.90
33673;DHT22;20011;51.510;9.942;2024-02-26T04:49:57;4.80;99.90
33673;DHT22;20011;51.510;9.942;2024-02-26T04:52:24;4.80;99.90
33673;DHT22;20011;51.510;9.942;2024-02-26T04:54:51;4.90;99.90
33673;DHT22;20011;51.510;9.942;2024-02-26T04:57:18;4.80;99.90
33673;DHT22;20011;51.510;9.942;2024-02-26T04:59:45;4.80;99.90
33673;DHT22;20011;51.510;9.942;2024-02-26T05:02:13;4.80;99.90
33673;DHT22;20011;51.510;9.942;2024-02-26T05:04:41;4.70;99.90
33673;DHT22;20011;51.510;9.942;2024-02-26T05:07:08;4.70;99.90
33673;DHT22;20011;51.510;9.942;2024-02-26T05:09:35;4.50;99.90
33673;DHT22;20011;51.510;9.942;2024-02-26T05:12:02;4.60;99.90
33673;DHT22;20011;51.510;9.942;2024-02-26T05:14:30;4.60;99.90
33673;DHT22;20011;51.510;9.942;2024-02-26T05:16:57;4.60;99.90
33673;DHT22;20011;51.510;9.942;2024-02-26T05:19:24;4.60;99.90
33673;DHT22;20011;51.510;9.942;2024-02-26T05:21:51;4.70;99.90
33673;DHT22;20011;51.510;9.942;2024-02-26T05:24:18;4.70;99.90
33673;DHT22;20011;51.510;9.942;2024-02-26T05:26:49;4.60;99.90
33673;DHT22;20011;51.510;9.942;2024-02-26T05:29:16;4.70;99.90
33673;DHT22;20011;51.510;9.942;2024-02-26T05:31:43;4.80;99.90
33673;DHT22;20011;51.510;9.942;2024-02-26T05:34:10;4.80;99.90
33673;DHT22;20011;51.510;9.942;2024-02-26T05:36:37;4.80;99.90
33673;DHT22;20011;51.510;9.942;2024-02-26T05:39:05;4.80;99.90
33673;DHT22;20011;51.510;9.942;2024-02-26T05:41:32;4.80;99.90
33673;DHT22;20011;51.510;9.942;2024-02-26T05:43:59;4.80;99.90
33673;DHT22;20011;51.510;9.942;2024-02-26T05:46:26;4.80;99.90
33673;DHT22;20011;51.510;9.942;2024-02-26T05:48:54;4.90;99.90
33673;DHT22;20011;51.510;9.942;2024-02-26T05:51:21;4.90;99.90
33673;DHT22;20011;51.510;9.942;2024-02-26T05:53:49;4.90;99.90
33673;DHT22;20011;51.510;9.942;2024-02-26T05:56:22;4.90;99.90
33673;DHT22;20011;51.510;9.942;2024-02-26T05:58:50;4.80;99.90
33673;DHT22;20011;51.510;9.942;2024-02-26T06:01:17;4.90;99.90
33673;DHT22;20011;51.510;9.942;2024-02-26T06:03:44;5.00;99.90
33673;DHT22;20011;51.510;9.942;2024-02-26T06:06:12;4.80;99.90
33673;DHT22;20011;51.510;9.942;2024-02-26T06:08:40;4.90;99.90
33673;DHT22;20011;51.510;9.942;2024-02-26T06:11:07;4.80;99.90
33673;DHT22;20011;51.510;9.942;2024-02-26T06:13:35;4.80;99.90
33673;DHT22;20011;51.510;9.942;2024-02-26T06:16:02;4.80;99.90
33673;DHT22;20011;51.510;9.942;2024-02-26T06:18:30;4.80;99.90
33673;DHT22;20011;51.510;9.942;2024-02-26T06:20:57;4.80;99.90
33673;DHT22;20011;51.510;9.942;2024-02-26T06:23:24;4.90;99.90
33673;DHT22;20011;51.510;9.942;2024-02-26T06:25:51;5.00;99.90
33673;DHT22;20011;51.510;9.942;2024-02-26T06:28:19;5.00;99.90
33673;DHT22;20011;51.510;9.942;2024-02-26T06:30:49;5.00;99.90
33673;DHT22;20011;51.510;9.942;2024-02-26T06:33:17;5.00;99.90
33673;DHT22;20011;51.510;9.942;2024-02-26T06:35:44;5.10;99.90
33673;DHT22;20011;51.510;9.942;2024-02-26T06:38:12;5.10;99.90
33673;DHT22;20011;51.510;9.942;2024-02-26T06:40:40;5.10;99.90
33673;DHT22;20011;51.510;9.942;2024-02-26T06:43:07;5.20;99.90
33673;DHT22;20011;51.510;9.942;2024-02-26T06:45:34;5.30;99.90
33673;DHT22;20011;51.510;9.942;2024-02-26T06:48:01;5.20;99.90
33673;DHT22;20011;51.510;9.942;2024-02-26T06:50:29;5.20;99.90
33673;DHT22;20011;51.510;9.942;2024-02-26T06:52:56;5.20;99.90
33673;DHT22;20011;51.510;9.942;2024-02-26T06:55:23;5.30;99.90
33673;DHT22;20011;51.510;9.942;2024-02-26T06:57:50;5.30;99.90
33673;DHT22;20011;51.510;9.942;2024-02-26T07:00:17;5.40;99.90
33673;DHT22;20011;51.510;9.942;2024-02-26T07:02:44;5.30;99.90
33673;DHT22;20011;51.510;9.942;2024-02-26T07:05:12;5.40;99.90
33673;DHT22;20011;51.510;9.942;2024-02-26T07:07:39;5.60;99.90
33673;DHT22;20011;51.510;9.942;2024-02-26T07:10:07;5.50;99.90
33673;DHT22;20011;51.510;9.942;2024-02-26T07:12:34;5.50;99.90
33673;DHT22;20011;51.510;9.942;2024-02-26T07:15:01;5.60;99.90
33673;DHT22;20011;51.510;9.942;2024-02-26T07:17:29;5.50;99.90
33673;DHT22;20011;51.510;9.942;2024-02-26T07:19:56;5.50;99.90
33673;DHT22;20011;51.510;9.942;2024-02-26T07:22:23;5.50;99.90
33673;DHT22;20011;51.510;9.942;2024-02-26T07:24:51;5.50;99.90
33673;DHT22;20011;51.510;9.942;2024-02-26T07:27:18;5.70;99.90
33673;DHT22;20011;51.510;9.942;2024-02-26T07:29:47;5.70;99.90
33673;DHT22;20011;51.510;9.942;2024-02-26T07:32:14;5.80;99.90
33673;DHT22;20011;51.510;9.942;2024-02-26T07:34:42;5.70;99.90
33673;DHT22;20011;51.510;9.942;2024-02-26T07:37:11;5.70;99.90
33673;DHT22;20011;51.510;9.942;2024-02-26T07:39:39;5.80;99.90
33673;DHT22;20011;51.510;9.942;2024-02-26T07:42:06;5.80;99.90
33673;DHT22;20011;51.510;9.942;2024-02-26T07:44:33;5.80;99.90
33673;DHT22;20011;51.510;9.942;2024-02-26T07:47:00;5.90;99.90
33673;DHT22;20011;51.510;9.942;2024-02-26T07:49:27;6.00;99.90
33673;DHT22;20011;51.510;9.942;2024-02-26T07:51:54;6.10;99.90
33673;DHT22;20011;51.510;9.942;2024-02-26T07:54:24;6.10;99.90
33673;DHT22;20011;51.510;9.942;2024-02-26T07:56:51;6.10;99.90
33673;DHT22;20011;51.510;9.942;2024-02-26T07:59:19;6.30;99.90
33673;DHT22;20011;51.510;9.942;2024-02-26T08:01:52;6.30;99.90
33673;DHT22;20011;51.510;9.942;2024-02-26T08:04:24;6.20;99.90
33673;DHT22;20011;51.510;9.942;2024-02-26T08:06:53;6.30;99.90
33673;DHT22;20011;51.510;9.942;2024-02-26T08:09:21;6.40;99.90
33673;DHT22;20011;51.510;9.942;2024-02-26T08:11:48;6.50;99.90
33673;DHT22;20011;51.510;9.942;2024-02-26T08:14:15;6.40;99.90
33673;DHT22;20011;51.510;9.942;2024-02-26T08:16:42;6.50;99.90
33673;DHT22;20011;51.510;9.942;2024-02-26T08:19:09;6.60;99.90
33673;DHT22;20011;51.510;9.942;2024-02-26T08:21:38;6.60;99.90
33673;DHT22;20011;51.510;9.942;2024-02-26T08:24:05;6.60;99.90
33673;DHT22;20011;51.510;9.942;2024-02-26T08:26:32;6.70;99.90
33673;DHT22;20011;51.510;9.942;2024-02-26T08:28:59;6.70;99.90
33673;DHT22;20011;51.510;9.942;2024-02-26T08:31:27;6.70;99.90
33673;DHT22;20011;51.510;9.942;2024-02-26T08:33:54;6.70;99.90
33673;DHT22;20011;51.510;9.942;2024-02-26T08:36:22;6.70;99.90
33673;DHT22;20011;51.510;9.942;2024-02-26T08:38:49;6.70;99.90
33673;DHT22;20011;51.510;9.942;2024-02-26T08:41:16;6.80;99.90
33673;DHT22;20011;51.510;9.942;2024-02-26T08:43:43;6.80;99.90
33673;DHT22;20011;51.510;9.942;2024-02-26T08:46:10;6.90;99.90
33673;DHT22;20011;51.510;9.942;2024-02-26T08:48:39;7.00;99.90
33673;DHT22;20011;51.510;9.942;2024-02-26T08:51:07;7.00;99.90
33673;DHT22;20011;51.510;9.942;2024-02-26T08:53:35;7.10;99.90
33673;DHT22;20011;51.510;9.942;2024-02-26T08:56:09;7.10;99.90
33673;DHT22;20011;51.510;9.942;2024-02-26T08:58:38;7.10;99.90
33673;DHT22;20011;51.510;9.942;2024-02-26T09:01:05;7.20;99.90
33673;DHT22;20011;51.510;9.942;2024-02-26T09:03:32;7.20;99.90
33673;DHT22;20011;51.510;9.942;2024-02-26T09:05:59;7.30;99.90
33673;DHT22;20011;51.510;9.942;2024-02-26T09:08:26;7.30;99.90
33673;DHT22;20011;51.510;9.942;2024-02-26T09:10:53;7.30;99.90
33673;DHT22;20011;51.510;9.942;2024-02-26T09:13:20;7.40;99.90
33673;DHT22;20011;51.510;9.942;2024-02-26T09:15:47;7.50;99.90
33673;DHT22;20011;51.510;9.942;2024-02-26T09:18:14;7.60;99.90
33673;DHT22;20011;51.510;9.942;2024-02-26T09:20:42;7.70;99.90
33673;DHT22;20011;51.510;9.942;2024-02-26T09:23:09;7.70;99.90
33673;DHT22;20011;51.510;9.942;2024-02-26T09:25:36;7.80;99.90
33673;DHT22;20011;51.510;9.942;2024-02-26T09:28:03;7.90;99.90
33673;DHT22;20011;51.510;9.942;2024-02-26T09:30:30;8.00;99.90
33673;DHT22;20011;51.510;9.942;2024-02-26T09:32:58;8.10;99.90
33673;DHT22;20011;51.510;9.942;2024-02-26T09:35:25;8.20;99.90
33673;DHT22;20011;51.510;9.942;2024-02-26T09:37:53;8.30;99.90
33673;DHT22;20011;51.510;9.942;2024-02-26T09:40:20;8.30;99.90
33673;DHT22;20011;51.510;9.942;2024-02-26T09:42:49;8.40;99.90
33673;DHT22;20011;51.510;9.942;2024-02-26T09:45:21;8.40;99.90
33673;DHT22;20011;51.510;9.942;2024-02-26T09:47:49;8.50;99.90
33673;DHT22;20011;51.510;9.942;2024-02-26T09:50:17;8.50;99.90
33673;DHT22;20011;51.510;9.942;2024-02-26T09:52:45;8.60;99.90
33673;DHT22;20011;51.510;9.942;2024-02-26T09:55:12;8.60;99.90
33673;DHT22;20011;51.510;9.942;2024-02-26T09:57:47;8.70;99.90
33673;DHT22;20011;51.510;9.942;2024-02-26T10:00:19;8.70;99.90
33673;DHT22;20011;51.510;9.942;2024-02-26T10:02:48;8.80;99.90
33673;DHT22;20011;51.510;9.942;2024-02-26T10:05:17;8.70;99.90
33673;DHT22;20011;51.510;9.942;2024-02-26T10:07:46;8.80;99.90
33673;DHT22;20011;51.510;9.942;2024-02-26T10:10:17;8.90;99.90
33673;DHT22;20011;51.510;9.942;2024-02-26T10:12:44;8.90;99.90
33673;DHT22;20011;51.510;9.942;2024-02-26T10:15:11;8.90;99.90
33673;DHT22;20011;51.510;9.942;2024-02-26T10:17:39;8.90;99.90
33673;DHT22;20011;51.510;9.942;2024-02-26T10:20:19;9.00;99.90
33673;DHT22;20011;51.510;9.942;2024-02-26T10:22:49;9.10;99.90
33673;DHT22;20011;51.510;9.942;2024-02-26T10:25:17;9.10;99.90
33673;DHT22;20011;51.510;9.942;2024-02-26T10:27:43;9.20;99.90
33673;DHT22;20011;51.510;9.942;2024-02-26T10:30:22;9.20;99.90
33673;DHT22;20011;51.510;9.942;2024-02-26T10:32:50;9.20;99.90
33673;DHT22;20011;51.510;9.942;2024-02-26T10:35:18;9.20;99.90
33673;DHT22;20011;51.510;9.942;2024-02-26T10:37:48;9.20;99.90
33673;DHT22;20011;51.510;9.942;2024-02-26T10:40:16;9.20;99.90
33673;DHT22;20011;51.510;9.942;2024-02-26T10:42:43;9.30;99.90
33673;DHT22;20011;51.510;9.942;2024-02-26T10:45:12;9.40;99.90
33673;DHT22;20011;51.510;9.942;2024-02-26T10:47:40;9.30;99.90
33673;DHT22;20011;51.510;9.942;2024-02-26T10:50:08;9.30;99.90
33673;DHT22;20011;51.510;9.942;2024-02-26T10:52:36;9.40;99.90
33673;DHT22;20011;51.510;9.942;2024-02-26T10:55:05;9.50;99.90
33673;DHT22;20011;51.510;9.942;2024-02-26T10:57:37;9.50;99.90
33673;DHT22;20011;51.510;9.942;2024-02-26T11:00:07;9.50;99.90
33673;DHT22;20011;51.510;9.942;2024-02-26T11:02:38;9.60;99.90
33673;DHT22;20011;51.510;9.942;2024-02-26T11:05:07;9.60;99.90
33673;DHT22;20011;51.510;9.942;2024-02-26T11:07:35;9.60;99.90
33673;DHT22;20011;51.510;9.942;2024-02-26T11:10:04;9.70;99.90
33673;DHT22;20011;51.510;9.942;2024-02-26T11:12:33;9.70;99.90
33673;DHT22;20011;51.510;9.942;2024-02-26T11:15:05;9.80;99.90
33673;DHT22;20011;51.510;9.942;2024-02-26T11:17:32;9.80;99.90
33673;DHT22;20011;51.510;9.942;2024-02-26T11:20:01;9.80;99.90
33673;DHT22;20011;51.510;9.942;2024-02-26T11:22:31;9.80;99.90
33673;DHT22;20011;51.510;9.942;2024-02-26T11:24:59;9.90;99.90
33673;DHT22;20011;51.510;9.942;2024-02-26T11:27:30;9.90;99.90
33673;DHT22;20011;51.510;9.942;2024-02-26T11:30:01;10.00;99.90
33673;DHT22;20011;51.510;9.942;2024-02-26T11:32:30;10.10;99.90
33673;DHT22;20011;51.510;9.942;2024-02-26T11:34:58;10.10;99.90
33673;DHT22;20011;51.510;9.942;2024-02-26T11:37:26;10.20;99.90
33673;DHT22;20011;51.510;9.942;2024-02-26T11:39:53;10.10;99.90
33673;DHT22;20011;51.510;9.942;2024-02-26T11:42:24;10.20;99.90
33673;DHT22;20011;51.510;9.942;2024-02-26T11:44:55;10.20;99.90
33673;DHT22;20011;51.510;9.942;2024-02-26T11:47:28;10.20;99.90
33673;DHT22;20011;51.510;9.942;2024-02-26T11:49:55;10.10;99.90
33673;DHT22;20011;51.510;9.942;2024-02-26T11:52:22;10.10;99.90
33673;DHT22;20011;51.510;9.942;2024-02-26T11:54:51;10.10;99.90
33673;DHT22;20011;51.510;9.942;2024-02-26T11:57:28;10.10;99.90
33673;DHT22;20011;51.510;9.942;2024-02-26T12:00:10;10.10;99.90
33673;DHT22;20011;51.510;9.942;2024-02-26T12:05:14;10.00;99.90
33673;DHT22;20011;51.510;9.942;2024-02-26T12:08:09;10.00;99.90
33673;DHT22;20011;51.510;9.942;2024-02-26T12:10:37;10.00;99.90
33673;DHT22;20011;51.510;9.942;2024-02-26T12:13:16;9.90;99.90
33673;DHT22;20011;51.510;9.942;2024-02-26T12:15:58;9.90;99.90
33673;DHT22;20011;51.510;9.942;2024-02-26T12:18:26;9.90;99.90
33673;DHT22;20011;51.510;9.942;2024-02-26T12:21:01;10.00;99.90
33673;DHT22;20011;51.510;9.942;2024-02-26T12:23:29;10.00;99.90
33673;DHT22;20011;51.510;9.942;2024-02-26T12:26:00;10.10;99.90
33673;DHT22;20011;51.510;9.942;2024-02-26T12:28:30;10.10;99.90
33673;DHT22;20011;51.510;9.942;2024-02-26T12:30:58;10.00;99.90
33673;DHT22;20011;51.510;9.942;2024-02-26T12:33:27;10.10;99.90
33673;DHT22;20011;51.510;9.942;2024-02-26T12:35:56;10.10;99.90
33673;DHT22;20011;51.510;9.942;2024-02-26T12:38:24;10.20;99.90
33673;DHT22;20011;51.510;9.942;2024-02-26T12:40:51;10.20;99.90
33673;DHT22;20011;51.510;9.942;2024-02-26T12:43:18;10.10;99.90
33673;DHT22;20011;51.510;9.942;2024-02-26T12:45:45;10.10;99.90
33673;DHT22;20011;51.510;9.942;2024-02-26T12:48:14;10.00;99.90
33673;DHT22;20011;51.510;9.942;2024-02-26T12:50:46;10.00;99.90
33673;DHT22;20011;51.510;9.942;2024-02-26T12:53:14;10.10;99.90
33673;DHT22;20011;51.510;9.942;2024-02-26T12:55:42;10.10;99.90
33673;DHT22;20011;51.510;9.942;2024-02-26T12:58:10;10.10;99.90
33673;DHT22;20011;51.510;9.942;2024-02-26T13:00:38;10.20;99.90
33673;DHT22;20011;51.510;9.942;2024-02-26T13:03:05;10.20;99.90
33673;DHT22;20011;51.510;9.942;2024-02-26T13:05:33;10.20;99.90
33673;DHT22;20011;51.510;9.942;2024-02-26T13:08:01;10.20;99.90
33673;DHT22;20011;51.510;9.942;2024-02-26T13:10:32;10.20;99.90
33673;DHT22;20011;51.510;9.942;2024-02-26T13:13:02;10.20;99.90
33673;DHT22;20011;51.510;9.942;2024-02-26T13:15:29;10.20;99.90
33673;DHT22;20011;51.510;9.942;2024-02-26T13:17:56;10.20;99.90
33673;DHT22;20011;51.510;9.942;2024-02-26T13:20:27;10.20;99.90
33673;DHT22;20011;51.510;9.942;2024-02-26T13:23:03;10.30;99.90
33673;DHT22;20011;51.510;9.942;2024-02-26T13:25:32;10.30;99.90
33673;DHT22;20011;51.510;9.942;2024-02-26T13:28:09;10.30;99.90
33673;DHT22;20011;51.510;9.942;2024-02-26T13:30:40;10.30;99.90
33673;DHT22;20011;51.510;9.942;2024-02-26T13:33:09;10.30;99.90
33673;DHT22;20011;51.510;9.942;2024-02-26T13:35:36;10.30;99.90
33673;DHT22;20011;51.510;9.942;2024-02-26T13:38:06;10.30;99.90
33673;DHT22;20011;51.510;9.942;2024-02-26T13:40:33;10.30;99.90
33673;DHT22;20011;51.510;9.942;2024-02-26T13:43:01;10.30;99.90
33673;DHT22;20011;51.510;9.942;2024-02-26T13:45:28;10.30;99.90
33673;DHT22;20011;51.510;9.942;2024-02-26T13:48:05;10.30;99.90
33673;DHT22;20011;51.510;9.942;2024-02-26T13:50:32;10.30;99.90
33673;DHT22;20011;51.510;9.942;2024-02-26T13:52:59;10.30;99.90
33673;DHT22;20011;51.510;9.942;2024-02-26T13:55:27;10.30;99.90
33673;DHT22;20011;51.510;9.942;2024-02-26T13:57:56;10.30;99.90
33673;DHT22;20011;51.510;9.942;2024-02-26T14:00:24;10.40;99.90
33673;DHT22;20011;51.510;9.942;2024-02-26T14:02:54;10.40;99.90
33673;DHT22;20011;51.510;9.942;2024-02-26T14:05:21;10.40;99.90
33673;DHT22;20011;51.510;9.942;2024-02-26T14:07:48;10.40;99.90
33673;DHT22;20011;51.510;9.942;2024-02-26T14:10:19;10.40;99.90
33673;DHT22;20011;51.510;9.942;2024-02-26T14:12:46;10.50;99.90
33673;DHT22;20011;51.510;9.942;2024-02-26T14:15:13;10.50;99.90
33673;DHT22;20011;51.510;9.942;2024-02-26T14:17:40;10.50;99.90
33673;DHT22;20011;51.510;9.942;2024-02-26T14:20:07;10.50;99.90
33673;DHT22;20011;51.510;9.942;2024-02-26T14:22:36;10.60;99.90
33673;DHT22;20011;51.510;9.942;2024-02-26T14:25:03;10.50;99.90
33673;DHT22;20011;51.510;9.942;2024-02-26T14:27:30;10.50;99.90
33673;DHT22;20011;51.510;9.942;2024-02-26T14:29:57;10.50;99.90
33673;DHT22;20011;51.510;9.942;2024-02-26T14:32:24;10.60;99.90
33673;DHT22;20011;51.510;9.942;2024-02-26T14:34:51;10.50;99.90
33673;DHT22;20011;51.510;9.942;2024-02-26T14:37:19;10.50;99.90
33673;DHT22;20011;51.510;9.942;2024-02-26T14:39:46;10.50;99.90
33673;DHT22;20011;51.510;9.942;2024-02-26T14:42:14;10.60;99.90
33673;DHT22;20011;51.510;9.942;2024-02-26T14:44:44;10.50;99.90
33673;DHT22;20011;51.510;9.942;2024-02-26T14:47:13;10.50;99.90
33673;DHT22;20011;51.510;9.942;2024-02-26T14:49:41;10.60;99.90
33673;DHT22;20011;51.510;9.942;2024-02-26T14:52:08;10.60;99.90
33673;DHT22;20011;51.510;9.942;2024-02-26T14:54:36;10.60;99.90
33673;DHT22;20011;51.510;9.942;2024-02-26T14:57:06;10.60;99.90
33673;DHT22;20011;51.510;9.942;2024-02-26T14:59:34;10.60;99.90
33673;DHT22;20011;51.510;9.942;2024-02-26T15:02:03;10.60;99.90
33673;DHT22;20011;51.510;9.942;2024-02-26T15:04:30;10.60;99.90
33673;DHT22;20011;51.510;9.942;2024-02-26T15:06:58;10.60;99.90
33673;DHT22;20011;51.510;9.942;2024-02-26T15:09:25;10.60;99.90
33673;DHT22;20011;51.510;9.942;2024-02-26T15:11:52;10.60;99.90
33673;DHT22;20011;51.510;9.942;2024-02-26T15:14:19;10.60;99.90
33673;DHT22;20011;51.510;9.942;2024-02-26T15:16:46;10.60;99.90
33673;DHT22;20011;51.510;9.942;2024-02-26T15:19:13;10.60;99.90
33673;DHT22;20011;51.510;9.942;2024-02-26T15:21:47;10.60;99.90
33673;DHT22;20011;51.510;9.942;2024-02-26T15:24:14;10.60;99.90
33673;DHT22;20011;51.510;9.942;2024-02-26T15:26:45;10.60;99.90
33673;DHT22;20011;51.510;9.942;2024-02-26T15:29:12;10.70;99.90
33673;DHT22;20011;51.510;9.942;2024-02-26T15:31:39;10.60;99.90
33673;DHT22;20011;51.510;9.942;2024-02-26T15:34:06;10.60;99.90
33673;DHT22;20011;51.510;9.942;2024-02-26T15:36:34;10.60;99.90
33673;DHT22;20011;51.510;9.942;2024-02-26T15:39:02;10.60;99.90
33673;DHT22;20011;51.510;9.942;2024-02-26T15:41:30;10.60;99.90
33673;DHT22;20011;51.510;9.942;2024-02-26T15:43:57;10.60;99.90
33673;DHT22;20011;51.510;9.942;2024-02-26T15:46:24;10.60;99.90
33673;DHT22;20011;51.510;9.942;2024-02-26T15:48:52;10.50;99.90
33673;DHT22;20011;51.510;9.942;2024-02-26T15:51:21;10.50;99.90